sensor_id;sensor_type;location;lat;lon;timestamp;temperature;humidity
44305;DHT22;30019;50.576;8.568;2022-09-25T00:01:12;12.80;99.90
44305;DHT22;30019;50.576;8.568;2022-09-25T00:03:38;12.80;99.90
44305;DHT22;30019;50.576;8.568;2022-09-25T00:06:11;12.80;99.90
44305;DHT22;30019;50.576;8.568;2022-09-25T00:08:37;12.70;99.90
44305;DHT22;30019;50.576;8.568;2022-09-25T00:11:06;12.70;99.90
44305;DHT22;30019;50.576;8.568;2022-09-25T00:13:32;12.60;99.90
44305;DHT22;30019;50.576;8.568;2022-09-25T00:15:58;12.50;99.90
44305;DHT22;30019;50.576;8.568;2022-09-25T00:18:25;12.40;99.90
44305;DHT22;30019;50.576;8.568;2022-09-25T00:21:12;12.40;99.90
44305;DHT22;30019;50.576;8.568;2022-09-25T00:23:39;12.40;99.90
44305;DHT22;30019;50.576;8.568;2022-09-25T00:26:05;12.40;99.90
44305;DHT22;30019;50.576;8.568;2022-09-25T00:28:36;12.40;99.90
44305;DHT22;30019;50.576;8.568;2022-09-25T00:31:03;12.40;99.90
44305;DHT22;30019;50.576;8.568;2022-09-25T00:33:30;12.40;99.90
44305;DHT22;30019;50.576;8.568;2022-09-25T00:36:03;12.40;99.90
44305;DHT22;30019;50.576;8.568;2022-09-25T00:38:31;12.40;99.90
44305;DHT22;30019;50.576;8.568;2022-09-25T00:40:57;12.40;99.90
44305;DHT22;30019;50.576;8.568;2022-09-25T00:43:38;12.30;99.90
44305;DHT22;30019;50.576;8.568;2022-09-25T00:46:15;12.40;99.90
44305;DHT22;30019;50.576;8.568;2022-09-25T00:49:06;12.40;99.90
44305;DHT22;30019;50.576;8.568;2022-09-25T00:51:47;12.40;99.90
44305;DHT22;30019;50.576;8.568;2022-09-25T00:54:32;12.30;99.90
44305;DHT22;30019;50.576;8.568;2022-09-25T00:57:04;12.30;99.90
44305;DHT22;30019;50.576;8.568;2022-09-25T00:59:37;12.30;99.90
44305;DHT22;30019;50.576;8.568;2022-09-25T01:02:03;12.20;99.90
44305;DHT22;30019;50.576;8.568;2022-09-25T01:04:32;12.20;99.90
44305;DHT22;30019;50.576;8.568;2022-09-25T01:06:59;12.20;99.90
44305;DHT22;30019;50.576;8.568;2022-09-25T01:09:25;12.20;99.90
44305;DHT22;30019;50.576;8.568;2022-09-25T01:11:51;12.20;99.90
44305;DHT22;30019;50.576;8.568;2022-09-25T01:14:19;12.20;99.90
44305;DHT22;30019;50.576;8.568;2022-09-25T01:17:00;12.20;99.90
44305;DHT22;30019;50.576;8.568;2022-09-25T01:19:43;12.20;99.90
44305;DHT22;30019;50.576;8.568;2022-09-25T01:22:42;12.20;99.90
44305;DHT22;30019;50.576;8.568;2022-09-25T01:31:01;12.10;99.90
44305;DHT22;30019;50.576;8.568;2022-09-25T01:33:38;12.10;99.90
44305;DHT22;30019;50.576;8.568;2022-09-25T01:36:31;12.20;99.90
44305;DHT22;30019;50.576;8.568;2022-09-25T01:39:10;12.20;99.90
44305;DHT22;30019;50.576;8.568;2022-09-25T01:41:57;12.20;99.90
44305;DHT22;30019;50.576;8.568;2022-09-25T01:44:28;12.10;99.90
44305;DHT22;30019;50.576;8.568;2022-09-25T01:46:58;12.20;99.90
44305;DHT22;30019;50.576;8.568;2022-09-25T01:49:41;12.10;99.90
44305;DHT22;30019;50.576;8.568;2022-09-25T01:52:14;12.10;99.90
44305;DHT22;30019;50.576;8.568;2022-09-25T01:54:46;12.10;99.90
44305;DHT22;30019;50.576;8.568;2022-09-25T01:59:58;12.10;99.90
44305;DHT22;30019;50.576;8.568;2022-09-25T02:02:28;12.10;99.90
44305;DHT22;30019;50.576;8.568;2022-09-25T02:05:15;12.10;99.90
44305;DHT22;30019;50.576;8.568;2022-09-25T02:07:46;12.00;99.90
44305;DHT22;30019;50.576;8.568;2022-09-25T02:10:26;12.00;99.90
44305;DHT22;30019;50.576;8.568;2022-09-25T02:12:56;12.00;99.90
44305;DHT22;30019;50.576;8.568;2022-09-25T02:15:32;12.00;99.90
44305;DHT22;30019;50.576;8.568;2022-09-25T02:18:04;12.00;99.90
44305;DHT22;30019;50.576;8.568;2022-09-25T02:24:20;12.00;99.90
44305;DHT22;30019;50.576;8.568;2022-09-25T02:26:46;12.00;99.90
44305;DHT22;30019;50.576;8.568;2022-09-25T02:29:12;12.00;99.90
44305;DHT22;30019;50.576;8.568;2022-09-25T02:31:41;12.10;99.90
44305;DHT22;30019;50.576;8.568;2022-09-25T02:34:10;12.10;99.90
44305;DHT22;30019;50.576;8.568;2022-09-25T02:36:35;12.10;99.90
44305;DHT22;30019;50.576;8.568;2022-09-25T02:39:03;12.20;99.90
44305;DHT22;30019;50.576;8.568;2022-09-25T02:41:54;12.10;99.90
44305;DHT22;30019;50.576;8.568;2022-09-25T02:44:30;12.20;99.90
44305;DHT22;30019;50.576;8.568;2022-09-25T02:47:24;12.20;99.90
44305;DHT22;30019;50.576;8.568;2022-09-25T02:50:19;12.20;99.90
44305;DHT22;30019;50.576;8.568;2022-09-25T02:55:38;12.00;99.90
44305;DHT22;30019;50.576;8.568;2022-09-25T02:58:12;12.00;99.90
44305;DHT22;30019;50.576;8.568;2022-09-25T03:00:42;12.00;99.90
44305;DHT22;30019;50.576;8.568;2022-09-25T03:03:11;12.10;99.90
44305;DHT22;30019;50.576;8.568;2022-09-25T03:05:38;12.10;99.90
44305;DHT22;30019;50.576;8.568;2022-09-25T03:08:05;12.10;99.90
44305;DHT22;30019;50.576;8.568;2022-09-25T03:10:49;12.10;99.90
44305;DHT22;30019;50.576;8.568;2022-09-25T03:13:21;12.10;99.90
44305;DHT22;30019;50.576;8.568;2022-09-25T03:15:51;12.10;99.90
44305;DHT22;30019;50.576;8.568;2022-09-25T03:18:19;12.00;99.90
44305;DHT22;30019;50.576;8.568;2022-09-25T03:20:45;12.00;99.90
44305;DHT22;30019;50.576;8.568;2022-09-25T03:23:11;11.90;99.90
44305;DHT22;30019;50.576;8.568;2022-09-25T03:25:37;11.80;99.90
44305;DHT22;30019;50.576;8.568;2022-09-25T03:28:07;11.80;99.90
44305;DHT22;30019;50.576;8.568;2022-09-25T03:30:33;11.90;99.90
44305;DHT22;30019;50.576;8.568;2022-09-25T03:32:58;11.90;99.90
44305;DHT22;30019;50.576;8.568;2022-09-25T03:35:24;11.90;99.90
44305;DHT22;30019;50.576;8.568;2022-09-25T03:37:51;11.90;99.90
44305;DHT22;30019;50.576;8.568;2022-09-25T03:40:16;12.00;99.90
44305;DHT22;30019;50.576;8.568;2022-09-25T03:42:42;11.90;99.90
44305;DHT22;30019;50.576;8.568;2022-09-25T03:45:08;11.90;99.90
44305;DHT22;30019;50.576;8.568;2022-09-25T03:47:35;11.80;99.90
44305;DHT22;30019;50.576;8.568;2022-09-25T03:50:01;11.80;99.90
44305;DHT22;30019;50.576;8.568;2022-09-25T03:52:26;11.80;99.90
44305;DHT22;30019;50.576;8.568;2022-09-25T03:54:52;11.90;99.90
44305;DHT22;30019;50.576;8.568;2022-09-25T03:57:17;11.80;99.90
44305;DHT22;30019;50.576;8.568;2022-09-25T03:59:43;11.90;99.90
44305;DHT22;30019;50.576;8.568;2022-09-25T04:02:08;11.90;99.90
44305;DHT22;30019;50.576;8.568;2022-09-25T04:04:34;11.80;99.90
44305;DHT22;30019;50.576;8.568;2022-09-25T04:07:02;11.90;99.90
44305;DHT22;30019;50.576;8.568;2022-09-25T04:09:27;11.90;99.90
44305;DHT22;30019;50.576;8.568;2022-09-25T04:11:53;11.80;99.90
44305;DHT22;30019;50.576;8.568;2022-09-25T04:14:20;11.80;99.90
44305;DHT22;30019;50.576;8.568;2022-09-25T04:16:46;11.80;99.90
44305;DHT22;30019;50.576;8.568;2022-09-25T04:19:12;11.90;99.90
44305;DHT22;30019;50.576;8.568;2022-09-25T04:21:37;11.80;99.90
44305;DHT22;30019;50.576;8.568;2022-09-25T04:24:03;11.90;99.90
44305;DHT22;30019;50.576;8.568;2022-09-25T04:26:47;11.90;99.90
44305;DHT22;30019;50.576;8.568;2022-09-25T04:29:17;11.90;99.90
44305;DHT22;30019;50.576;8.568;2022-09-25T04:31:42;11.90;99.90
44305;DHT22;30019;50.576;8.568;2022-09-25T04:34:08;11.80;99.90
44305;DHT22;30019;50.576;8.568;2022-09-25T04:36:33;11.80;99.90
44305;DHT22;30019;50.576;8.568;2022-09-25T04:38:59;11.80;99.90
44305;DHT22;30019;50.576;8.568;2022-09-25T04:41:25;11.80;99.90
44305;DHT22;30019;50.576;8.568;2022-09-25T04:43:50;11.70;99.90
44305;DHT22;30019;50.576;8.568;2022-09-25T04:46:16;11.70;99.90
44305;DHT22;30019;50.576;8.568;2022-09-25T04:48:45;11.70;99.90
44305;DHT22;30019;50.576;8.568;2022-09-25T04:51:11;11.70;99.90
44305;DHT22;30019;50.576;8.568;2022-09-25T04:53:37;11.70;99.90
44305;DHT22;30019;50.576;8.568;2022-09-25T04:56:06;11.70;99.90
44305;DHT22;30019;50.576;8.568;2022-09-25T04:58:33;11.70;99.90
44305;DHT22;30019;50.576;8.568;2022-09-25T05:01:07;11.70;99.90
44305;DHT22;30019;50.576;8.568;2022-09-25T05:03:33;11.70;99.90
44305;DHT22;30019;50.576;8.568;2022-09-25T05:05:59;11.70;99.90
44305;DHT22;30019;50.576;8.568;2022-09-25T05:08:25;11.70;99.90
44305;DHT22;30019;50.576;8.568;2022-09-25T05:10:51;11.70;99.90
44305;DHT22;30019;50.576;8.568;2022-09-25T05:13:16;11.70;99.90
44305;DHT22;30019;50.576;8.568;2022-09-25T05:15:43;11.80;99.90
44305;DHT22;30019;50.576;8.568;2022-09-25T05:18:15;11.80;99.90
44305;DHT22;30019;50.576;8.568;2022-09-25T05:20:41;11.80;99.90
44305;DHT22;30019;50.576;8.568;2022-09-25T05:23:07;11.70;99.90
44305;DHT22;30019;50.576;8.568;2022-09-25T05:25:33;11.70;99.90
44305;DHT22;30019;50.576;8.568;2022-09-25T05:27:59;11.70;99.90
44305;DHT22;30019;50.576;8.568;2022-09-25T05:30:27;11.70;99.90
44305;DHT22;30019;50.576;8.568;2022-09-25T05:32:53;11.80;99.90
44305;DHT22;30019;50.576;8.568;2022-09-25T05:35:20;11.70;99.90
44305;DHT22;30019;50.576;8.568;2022-09-25T05:37:47;11.80;99.90
44305;DHT22;30019;50.576;8.568;2022-09-25T05:40:13;11.80;99.90
44305;DHT22;30019;50.576;8.568;2022-09-25T05:42:43;11.80;99.90
44305;DHT22;30019;50.576;8.568;2022-09-25T05:45:15;11.80;99.90
44305;DHT22;30019;50.576;8.568;2022-09-25T05:47:41;11.80;99.90
44305;DHT22;30019;50.576;8.568;2022-09-25T05:50:09;11.80;99.90
44305;DHT22;30019;50.576;8.568;2022-09-25T05:52:35;11.90;99.90
44305;DHT22;30019;50.576;8.568;2022-09-25T05:55:01;11.80;99.90
44305;DHT22;30019;50.576;8.568;2022-09-25T05:57:30;11.90;99.90
44305;DHT22;30019;50.576;8.568;2022-09-25T05:59:55;12.00;99.90
44305;DHT22;30019;50.576;8.568;2022-09-25T06:02:21;12.10;99.90
44305;DHT22;30019;50.576;8.568;2022-09-25T06:04:47;12.00;99.90
44305;DHT22;30019;50.576;8.568;2022-09-25T06:07:12;12.00;99.90
44305;DHT22;30019;50.576;8.568;2022-09-25T06:09:38;12.00;99.90
44305;DHT22;30019;50.576;8.568;2022-09-25T06:12:04;12.00;99.90
44305;DHT22;30019;50.576;8.568;2022-09-25T06:14:30;12.00;99.90
44305;DHT22;30019;50.576;8.568;2022-09-25T06:16:57;11.90;99.90
44305;DHT22;30019;50.576;8.568;2022-09-25T06:19:23;11.90;99.90
44305;DHT22;30019;50.576;8.568;2022-09-25T06:21:49;11.90;99.90
44305;DHT22;30019;50.576;8.568;2022-09-25T06:24:15;11.90;99.90
44305;DHT22;30019;50.576;8.568;2022-09-25T06:26:40;11.90;99.90
44305;DHT22;30019;50.576;8.568;2022-09-25T06:29:06;11.90;99.90
44305;DHT22;30019;50.576;8.568;2022-09-25T06:31:33;12.00;99.90
44305;DHT22;30019;50.576;8.568;2022-09-25T06:33:59;11.90;99.90
44305;DHT22;30019;50.576;8.568;2022-09-25T06:36:24;11.90;99.90
44305;DHT22;30019;50.576;8.568;2022-09-25T06:38:53;11.90;99.90
44305;DHT22;30019;50.576;8.568;2022-09-25T06:41:20;11.90;99.90
44305;DHT22;30019;50.576;8.568;2022-09-25T06:43:48;11.90;99.90
44305;DHT22;30019;50.576;8.568;2022-09-25T06:46:14;11.90;99.90
44305;DHT22;30019;50.576;8.568;2022-09-25T06:48:40;11.90;99.90
44305;DHT22;30019;50.576;8.568;2022-09-25T06:51:05;12.00;99.90
44305;DHT22;30019;50.576;8.568;2022-09-25T06:53:33;11.90;99.90
44305;DHT22;30019;50.576;8.568;2022-09-25T06:55:58;12.00;99.90
44305;DHT22;30019;50.576;8.568;2022-09-25T06:58:25;12.10;99.90
44305;DHT22;30019;50.576;8.568;2022-09-25T07:00:52;12.20;99.90
44305;DHT22;30019;50.576;8.568;2022-09-25T07:03:18;12.10;99.90
44305;DHT22;30019;50.576;8.568;2022-09-25T07:06:05;12.10;99.90
44305;DHT22;30019;50.576;8.568;2022-09-25T07:08:31;12.20;99.90
44305;DHT22;30019;50.576;8.568;2022-09-25T07:10:57;12.10;99.90
44305;DHT22;30019;50.576;8.568;2022-09-25T07:13:25;12.10;99.90
44305;DHT22;30019;50.576;8.568;2022-09-25T07:15:54;12.20;99.90
44305;DHT22;30019;50.576;8.568;2022-09-25T07:18:21;12.10;99.90
44305;DHT22;30019;50.576;8.568;2022-09-25T07:20:47;12.10;99.90
44305;DHT22;30019;50.576;8.568;2022-09-25T07:23:14;12.10;99.90
44305;DHT22;30019;50.576;8.568;2022-09-25T07:25:40;12.00;99.90
44305;DHT22;30019;50.576;8.568;2022-09-25T07:28:06;12.00;99.90
44305;DHT22;30019;50.576;8.568;2022-09-25T07:30:32;12.00;99.90
44305;DHT22;30019;50.576;8.568;2022-09-25T07:32:58;12.10;99.90
44305;DHT22;30019;50.576;8.568;2022-09-25T07:35:23;12.00;99.90
44305;DHT22;30019;50.576;8.568;2022-09-25T07:37:49;12.00;99.90
44305;DHT22;30019;50.576;8.568;2022-09-25T07:40:14;12.00;99.90
44305;DHT22;30019;50.576;8.568;2022-09-25T07:42:40;12.00;99.90
44305;DHT22;30019;50.576;8.568;2022-09-25T07:45:07;12.00;99.90
44305;DHT22;30019;50.576;8.568;2022-09-25T07:47:32;12.10;99.90
44305;DHT22;30019;50.576;8.568;2022-09-25T07:49:58;12.10;99.90
44305;DHT22;30019;50.576;8.568;2022-09-25T07:52:24;12.00;99.90
44305;DHT22;30019;50.576;8.568;2022-09-25T07:54:49;12.00;99.90
44305;DHT22;30019;50.576;8.568;2022-09-25T07:57:15;12.10;99.90
44305;DHT22;30019;50.576;8.568;2022-09-25T07:59:45;12.10;99.90
44305;DHT22;30019;50.576;8.568;2022-09-25T08:02:10;12.10;99.90
44305;DHT22;30019;50.576;8.568;2022-09-25T08:04:36;12.00;99.90
44305;DHT22;30019;50.576;8.568;2022-09-25T08:07:02;12.10;99.90
44305;DHT22;30019;50.576;8.568;2022-09-25T08:09:27;12.10;99.90
44305;DHT22;30019;50.576;8.568;2022-09-25T08:11:53;12.00;99.90
44305;DHT22;30019;50.576;8.568;2022-09-25T08:14:18;12.10;99.90
44305;DHT22;30019;50.576;8.568;2022-09-25T08:16:44;12.10;99.90
44305;DHT22;30019;50.576;8.568;2022-09-25T08:19:10;12.00;99.90
44305;DHT22;30019;50.576;8.568;2022-09-25T08:21:36;12.10;99.90
44305;DHT22;30019;50.576;8.568;2022-09-25T08:24:01;12.10;99.90
44305;DHT22;30019;50.576;8.568;2022-09-25T08:26:27;12.00;99.90
44305;DHT22;30019;50.576;8.568;2022-09-25T08:28:53;12.10;99.90
44305;DHT22;30019;50.576;8.568;2022-09-25T08:31:19;12.00;99.90
44305;DHT22;30019;50.576;8.568;2022-09-25T08:33:45;12.10;99.90
44305;DHT22;30019;50.576;8.568;2022-09-25T08:36:11;12.20;99.90
44305;DHT22;30019;50.576;8.568;2022-09-25T08:38:37;12.20;99.90
44305;DHT22;30019;50.576;8.568;2022-09-25T08:41:06;12.20;99.90
44305;DHT22;30019;50.576;8.568;2022-09-25T08:43:39;12.10;99.90
44305;DHT22;30019;50.576;8.568;2022-09-25T08:46:17;12.10;99.90
44305;DHT22;30019;50.576;8.568;2022-09-25T08:49:04;12.10;99.90
44305;DHT22;30019;50.576;8.568;2022-09-25T08:51:44;12.10;99.90
44305;DHT22;30019;50.576;8.568;2022-09-25T08:54:27;12.10;99.90
44305;DHT22;30019;50.576;8.568;2022-09-25T08:57:15;12.20;99.90
44305;DHT22;30019;50.576;8.568;2022-09-25T08:59:48;12.20;99.90
44305;DHT22;30019;50.576;8.568;2022-09-25T09:02:18;12.20;99.90
44305;DHT22;30019;50.576;8.568;2022-09-25T09:04:48;12.20;99.90
44305;DHT22;30019;50.576;8.568;2022-09-25T09:10:10;12.10;99.90
44305;DHT22;30019;50.576;8.568;2022-09-25T09:12:47;12.20;99.90
44305;DHT22;30019;50.576;8.568;2022-09-25T09:18:29;12.00;99.90
44305;DHT22;30019;50.576;8.568;2022-09-25T09:20:56;12.20;99.90
44305;DHT22;30019;50.576;8.568;2022-09-25T09:23:28;12.20;99.90
44305;DHT22;30019;50.576;8.568;2022-09-25T09:26:02;12.20;99.90
44305;DHT22;30019;50.576;8.568;2022-09-25T09:31:26;12.20;99.90
44305;DHT22;30019;50.576;8.568;2022-09-25T09:39:38;12.30;99.90
44305;DHT22;30019;50.576;8.568;2022-09-25T09:42:23;12.30;99.90
44305;DHT22;30019;50.576;8.568;2022-09-25T09:45:04;12.30;99.90
44305;DHT22;30019;50.576;8.568;2022-09-25T09:52:44;12.30;99.90
44305;DHT22;30019;50.576;8.568;2022-09-25T09:55:24;12.40;99.90
44305;DHT22;30019;50.576;8.568;2022-09-25T09:57:53;12.40;99.90
44305;DHT22;30019;50.576;8.568;2022-09-25T10:00:21;12.30;99.90
44305;DHT22;30019;50.576;8.568;2022-09-25T10:03:11;12.30;99.90
44305;DHT22;30019;50.576;8.568;2022-09-25T10:05:46;12.40;99.90
44305;DHT22;30019;50.576;8.568;2022-09-25T10:08:12;12.40;99.90
44305;DHT22;30019;50.576;8.568;2022-09-25T10:10:41;12.30;99.90
44305;DHT22;30019;50.576;8.568;2022-09-25T10:13:25;12.30;99.90
44305;DHT22;30019;50.576;8.568;2022-09-25T10:16:04;12.40;99.90
44305;DHT22;30019;50.576;8.568;2022-09-25T10:18:52;12.50;99.90
44305;DHT22;30019;50.576;8.568;2022-09-25T10:21:21;12.50;99.90
44305;DHT22;30019;50.576;8.568;2022-09-25T10:23:53;12.40;99.90
44305;DHT22;30019;50.576;8.568;2022-09-25T10:26:30;12.50;99.90
44305;DHT22;30019;50.576;8.568;2022-09-25T10:29:00;12.50;99.90
44305;DHT22;30019;50.576;8.568;2022-09-25T10:31:45;12.50;99.90
44305;DHT22;30019;50.576;8.568;2022-09-25T10:34:18;12.40;99.90
44305;DHT22;30019;50.576;8.568;2022-09-25T10:36:48;12.50;99.90
44305;DHT22;30019;50.576;8.568;2022-09-25T10:39:35;12.70;99.90
44305;DHT22;30019;50.576;8.568;2022-09-25T10:42:07;12.70;99.90
44305;DHT22;30019;50.576;8.568;2022-09-25T10:44:54;12.80;99.90
44305;DHT22;30019;50.576;8.568;2022-09-25T10:50:25;12.80;99.90
44305;DHT22;30019;50.576;8.568;2022-09-25T10:52:56;12.90;99.90
44305;DHT22;30019;50.576;8.568;2022-09-25T10:55:29;13.00;99.90
44305;DHT22;30019;50.576;8.568;2022-09-25T11:03:24;13.00;99.90
44305;DHT22;30019;50.576;8.568;2022-09-25T11:05:56;12.90;99.90
44305;DHT22;30019;50.576;8.568;2022-09-25T11:08:25;12.90;99.90
44305;DHT22;30019;50.576;8.568;2022-09-25T11:10:56;12.80;99.90
44305;DHT22;30019;50.576;8.568;2022-09-25T11:13:32;12.80;99.90
44305;DHT22;30019;50.576;8.568;2022-09-25T11:16:03;12.80;99.90
44305;DHT22;30019;50.576;8.568;2022-09-25T11:19:05;12.80;99.90
44305;DHT22;30019;50.576;8.568;2022-09-25T11:21:35;12.80;99.90
44305;DHT22;30019;50.576;8.568;2022-09-25T11:24:13;12.80;99.90
44305;DHT22;30019;50.576;8.568;2022-09-25T11:27:10;12.80;99.90
44305;DHT22;30019;50.576;8.568;2022-09-25T11:29:41;12.80;99.90
44305;DHT22;30019;50.576;8.568;2022-09-25T11:34:57;12.90;99.90
44305;DHT22;30019;50.576;8.568;2022-09-25T11:37:38;12.90;99.90
44305;DHT22;30019;50.576;8.568;2022-09-25T11:43:47;13.20;99.90
44305;DHT22;30019;50.576;8.568;2022-09-25T11:46:38;13.20;99.90
44305;DHT22;30019;50.576;8.568;2022-09-25T11:49:26;13.20;99.90
44305;DHT22;30019;50.576;8.568;2022-09-25T11:55:14;13.20;99.90
44305;DHT22;30019;50.576;8.568;2022-09-25T11:58:03;13.30;99.90
44305;DHT22;30019;50.576;8.568;2022-09-25T12:03:35;13.30;99.90
44305;DHT22;30019;50.576;8.568;2022-09-25T12:14:23;13.20;99.90
44305;DHT22;30019;50.576;8.568;2022-09-25T12:20:17;13.20;99.90
44305;DHT22;30019;50.576;8.568;2022-09-25T12:23:01;13.10;99.90
44305;DHT22;30019;50.576;8.568;2022-09-25T12:28:50;13.00;99.90
44305;DHT22;30019;50.576;8.568;2022-09-25T12:34:09;12.90;99.90
44305;DHT22;30019;50.576;8.568;2022-09-25T12:36:53;12.90;99.90
44305;DHT22;30019;50.576;8.568;2022-09-25T12:39:28;12.90;99.90
44305;DHT22;30019;50.576;8.568;2022-09-25T12:42:09;12.90;99.90
44305;DHT22;30019;50.576;8.568;2022-09-25T12:44:48;12.90;99.90
44305;DHT22;30019;50.576;8.568;2022-09-25T12:47:32;12.90;99.90
44305;DHT22;30019;50.576;8.568;2022-09-25T12:50:07;12.80;99.90
44305;DHT22;30019;50.576;8.568;2022-09-25T12:52:43;12.80;99.90
44305;DHT22;30019;50.576;8.568;2022-09-25T12:55:22;12.80;99.90
44305;DHT22;30019;50.576;8.568;2022-09-25T12:58:11;12.70;99.90
44305;DHT22;30019;50.576;8.568;2022-09-25T13:00:44;12.70;99.90
44305;DHT22;30019;50.576;8.568;2022-09-25T13:03:16;12.70;99.90
44305;DHT22;30019;50.576;8.568;2022-09-25T13:05:52;12.70;99.90
44305;DHT22;30019;50.576;8.568;2022-09-25T13:08:24;12.70;99.90
44305;DHT22;30019;50.576;8.568;2022-09-25T13:11:09;12.70;99.90
44305;DHT22;30019;50.576;8.568;2022-09-25T13:13:41;12.80;99.90
44305;DHT22;30019;50.576;8.568;2022-09-25T13:16:10;12.80;99.90
44305;DHT22;30019;50.576;8.568;2022-09-25T13:18:38;12.70;99.90
44305;DHT22;30019;50.576;8.568;2022-09-25T13:21:24;12.60;99.90
44305;DHT22;30019;50.576;8.568;2022-09-25T13:23:51;12.70;99.90
44305;DHT22;30019;50.576;8.568;2022-09-25T13:26:20;12.80;99.90
44305;DHT22;30019;50.576;8.568;2022-09-25T13:29:13;12.80;99.90
44305;DHT22;30019;50.576;8.568;2022-09-25T13:31:43;12.90;99.90
44305;DHT22;30019;50.576;8.568;2022-09-25T13:34:12;12.90;99.90
44305;DHT22;30019;50.576;8.568;2022-09-25T13:39:15;13.10;99.90
44305;DHT22;30019;50.576;8.568;2022-09-25T13:42:06;13.20;99.90
44305;DHT22;30019;50.576;8.568;2022-09-25T13:49:50;13.30;99.90
44305;DHT22;30019;50.576;8.568;2022-09-25T14:03:02;13.60;99.90
44305;DHT22;30019;50.576;8.568;2022-09-25T14:05:29;13.80;99.90
44305;DHT22;30019;50.576;8.568;2022-09-25T14:08:13;13.70;99.90
44305;DHT22;30019;50.576;8.568;2022-09-25T14:10:47;13.70;99.90
44305;DHT22;30019;50.576;8.568;2022-09-25T14:13:15;13.90;99.90
44305;DHT22;30019;50.576;8.568;2022-09-25T14:15:41;14.10;99.90
44305;DHT22;30019;50.576;8.568;2022-09-25T14:18:17;14.20;99.90
44305;DHT22;30019;50.576;8.568;2022-09-25T14:20:49;14.20;99.90
44305;DHT22;30019;50.576;8.568;2022-09-25T14:23:23;14.30;99.90
44305;DHT22;30019;50.576;8.568;2022-09-25T14:26:01;14.30;99.90
44305;DHT22;30019;50.576;8.568;2022-09-25T14:28:34;14.30;99.90
44305;DHT22;30019;50.576;8.568;2022-09-25T14:39:59;14.20;99.90
44305;DHT22;30019;50.576;8.568;2022-09-25T14:48:48;14.50;99.90
44305;DHT22;30019;50.576;8.568;2022-09-25T14:51:21;14.60;99.90
44305;DHT22;30019;50.576;8.568;2022-09-25T14:53:57;14.70;99.90
44305;DHT22;30019;50.576;8.568;2022-09-25T14:56:27;14.80;99.90
44305;DHT22;30019;50.576;8.568;2022-09-25T14:58:56;14.90;99.90
44305;DHT22;30019;50.576;8.568;2022-09-25T15:01:27;15.00;99.90
44305;DHT22;30019;50.576;8.568;2022-09-25T15:04:00;14.90;99.90
44305;DHT22;30019;50.576;8.568;2022-09-25T15:06:29;14.80;99.90
44305;DHT22;30019;50.576;8.568;2022-09-25T15:08:56;14.90;99.90
44305;DHT22;30019;50.576;8.568;2022-09-25T15:11:24;14.80;99.90
44305;DHT22;30019;50.576;8.568;2022-09-25T15:13:52;14.80;99.90
44305;DHT22;30019;50.576;8.568;2022-09-25T15:16:23;14.70;99.90
44305;DHT22;30019;50.576;8.568;2022-09-25T15:19:16;14.40;99.90
44305;DHT22;30019;50.576;8.568;2022-09-25T15:21:42;14.50;99.90
44305;DHT22;30019;50.576;8.568;2022-09-25T15:24:18;14.20;99.90
44305;DHT22;30019;50.576;8.568;2022-09-25T15:26:49;14.10;99.90
44305;DHT22;30019;50.576;8.568;2022-09-25T15:29:19;13.90;99.90
44305;DHT22;30019;50.576;8.568;2022-09-25T15:31:46;13.80;99.90
44305;DHT22;30019;50.576;8.568;2022-09-25T15:34:21;13.70;99.90
44305;DHT22;30019;50.576;8.568;2022-09-25T15:36:48;13.70;99.90
44305;DHT22;30019;50.576;8.568;2022-09-25T15:39:22;13.70;99.90
44305;DHT22;30019;50.576;8.568;2022-09-25T15:41:49;13.80;99.90
44305;DHT22;30019;50.576;8.568;2022-09-25T15:44:24;13.70;99.90
44305;DHT22;30019;50.576;8.568;2022-09-25T15:46:55;13.70;99.90
44305;DHT22;30019;50.576;8.568;2022-09-25T15:49:32;13.70;99.90
44305;DHT22;30019;50.576;8.568;2022-09-25T15:52:04;13.70;99.90
44305;DHT22;30019;50.576;8.568;2022-09-25T15:56:57;13.70;99.90
44305;DHT22;30019;50.576;8.568;2022-09-25T15:59:35;13.60;99.90
44305;DHT22;30019;50.576;8.568;2022-09-25T16:02:23;13.60;99.90
44305;DHT22;30019;50.576;8.568;2022-09-25T16:05:10;13.60;99.90
44305;DHT22;30019;50.576;8.568;2022-09-25T16:07:38;13.60;99.90
44305;DHT22;30019;50.576;8.568;2022-09-25T16:12:44;13.50;99.90
44305;DHT22;30019;50.576;8.568;2022-09-25T16:15:40;13.40;99.90
44305;DHT22;30019;50.576;8.568;2022-09-25T16:18:31;13.40;99.90
44305;DHT22;30019;50.576;8.568;2022-09-25T16:21:24;13.40;99.90
44305;DHT22;30019;50.576;8.568;2022-09-25T16:24:05;13.40;99.90
44305;DHT22;30019;50.576;8.568;2022-09-25T16:26:40;13.40;99.90
44305;DHT22;30019;50.576;8.568;2022-09-25T16:29:20;13.40;99.90
44305;DHT22;30019;50.576;8.568;2022-09-25T16:31:46;13.40;99.90
44305;DHT22;30019;50.576;8.568;2022-09-25T16:36:52;13.30;99.90
44305;DHT22;30019;50.576;8.568;2022-09-25T16:39:23;13.20;99.90
44305;DHT22;30019;50.576;8.568;2022-09-25T16:41:49;13.10;99.90
44305;DHT22;30019;50.576;8.568;2022-09-25T16:49:23;13.10;99.90
44305;DHT22;30019;50.576;8.568;2022-09-25T16:51:50;13.00;99.90
44305;DHT22;30019;50.576;8.568;2022-09-25T16:54:18;13.00;99.90
44305;DHT22;30019;50.576;8.568;2022-09-25T16:56:45;13.00;99.90
44305;DHT22;30019;50.576;8.568;2022-09-25T16:59:16;12.90;99.90
44305;DHT22;30019;50.576;8.568;2022-09-25T17:01:43;12.90;99.90
44305;DHT22;30019;50.576;8.568;2022-09-25T17:04:10;12.80;99.90
44305;DHT22;30019;50.576;8.568;2022-09-25T17:06:36;12.80;99.90
44305;DHT22;30019;50.576;8.568;2022-09-25T17:09:10;12.80;99.90
44305;DHT22;30019;50.576;8.568;2022-09-25T17:11:36;12.70;99.90
44305;DHT22;30019;50.576;8.568;2022-09-25T17:14:02;12.60;99.90
44305;DHT22;30019;50.576;8.568;2022-09-25T17:16:28;12.60;99.90
44305;DHT22;30019;50.576;8.568;2022-09-25T17:18:53;12.50;99.90
44305;DHT22;30019;50.576;8.568;2022-09-25T17:21:19;12.40;99.90
44305;DHT22;30019;50.576;8.568;2022-09-25T17:23:44;12.40;99.90
44305;DHT22;30019;50.576;8.568;2022-09-25T17:26:17;12.30;99.90
44305;DHT22;30019;50.576;8.568;2022-09-25T17:28:44;12.20;99.90
44305;DHT22;30019;50.576;8.568;2022-09-25T17:31:12;12.20;99.90
44305;DHT22;30019;50.576;8.568;2022-09-25T17:33:39;12.20;99.90
44305;DHT22;30019;50.576;8.568;2022-09-25T17:36:08;12.10;99.90
44305;DHT22;30019;50.576;8.568;2022-09-25T17:38:34;12.00;99.90
44305;DHT22;30019;50.576;8.568;2022-09-25T17:41:02;12.00;99.90
44305;DHT22;30019;50.576;8.568;2022-09-25T17:43:28;12.00;99.90
44305;DHT22;30019;50.576;8.568;2022-09-25T17:45:56;11.90;99.90
44305;DHT22;30019;50.576;8.568;2022-09-25T17:48:27;11.90;99.90
44305;DHT22;30019;50.576;8.568;2022-09-25T17:51:19;11.90;99.90
44305;DHT22;30019;50.576;8.568;2022-09-25T17:53:43;11.80;99.90
44305;DHT22;30019;50.576;8.568;2022-09-25T17:56:10;11.80;99.90